Time;durP1;ratioP1;P1;durP2;ratioP2;P2;SDS_P1;SDS_P2;PMS_P1;PMS_P2;Temp;Humidity;BMP_temperature;BMP_pressure;BME280_temperature;BME280_humidity;BME280_pressure;Samples;Min_cycle;Max_cycle;Signal;HPM_P1;HPM_P2
2021/06/17 00:02:07;;;;;;;11.80;8.38;;;;;;;;;;5044804;28;20049;-68
2021/06/17 00:04:33;;;;;;;13.55;8.32;;;;;;;;;;5040802;28;20111;-68
2021/06/17 00:06:59;;;;;;;13.00;8.77;;;;;;;;;;5049944;28;20044;-68
2021/06/17 00:09:26;;;;;;;18.05;8.75;;;;;;;;;;5043886;28;20045;-68
2021/06/17 00:11:52;;;;;;;13.98;8.80;;;;;;;;;;5046550;28;20064;-68
2021/06/17 00:14:19;;;;;;;16.20;9.73;;;;;;;;;;5038572;28;20044;-68
2021/06/17 00:16:45;;;;;;;15.55;9.48;;;;;;;;;;5035890;28;20434;-68
2021/06/17 00:19:12;;;;;;;14.50;9.43;;;;;;;;;;5036504;28;20140;-68
2021/06/17 00:21:38;;;;;;;15.23;9.82;;;;;;;;;;5043311;28;20053;-68
2021/06/17 00:24:05;;;;;;;14.93;9.57;;;;;;;;;;5038393;28;20048;-68
2021/06/17 00:26:31;;;;;;;13.73;9.70;;;;;;;;;;5040532;28;20041;-68
2021/06/17 00:28:57;;;;;;;18.33;9.10;;;;;;;;;;5044831;28;20042;-68
2021/06/17 00:31:23;;;;;;;13.52;9.45;;;;;;;;;;5044388;28;20078;-67
2021/06/17 00:33:50;;;;;;;12.52;8.77;;;;;;;;;;5039409;28;20477;-68
2021/06/17 00:36:16;;;;;;;14.55;9.77;;;;;;;;;;5040514;28;20041;-68
2021/06/17 00:38:43;;;;;;;14.57;8.98;;;;;;;;;;5066856;28;20037;-67
2021/06/17 00:41:10;;;;;;;16.38;9.55;;;;;;;;;;5040961;28;20523;-67
2021/06/17 00:43:36;;;;;;;13.90;9.88;;;;;;;;;;5044621;28;20087;-68
2021/06/17 00:46:02;;;;;;;17.48;9.98;;;;;;;;;;5047234;28;20101;-68
2021/06/17 00:48:28;;;;;;;15.93;9.43;;;;;;;;;;5042965;28;20118;-68
2021/06/17 00:50:56;;;;;;;11.70;9.15;;;;;;;;;;5050936;28;20059;-68
2021/06/17 00:53:23;;;;;;;12.43;8.98;;;;;;;;;;5043857;28;20071;-68
2021/06/17 00:55:50;;;;;;;13.93;10.18;;;;;;;;;;5042965;28;20045;-68
2021/06/17 00:58:16;;;;;;;14.23;10.20;;;;;;;;;;5040418;28;20041;-67
2021/06/17 01:00:42;;;;;;;16.73;10.48;;;;;;;;;;5042151;28;20056;-68
2021/06/17 01:03:09;;;;;;;16.25;10.40;;;;;;;;;;5048866;28;20943;-68
2021/06/17 01:05:35;;;;;;;14.90;10.88;;;;;;;;;;5047609;28;20032;-68
2021/06/17 01:08:02;;;;;;;17.65;11.00;;;;;;;;;;5045204;28;20061;-68
2021/06/17 01:10:37;;;;;;;16.13;11.65;;;;;;;;;;5043394;28;20123;-68
2021/06/17 01:13:10;;;;;;;14.45;10.95;;;;;;;;;;5039111;28;20040;-67
2021/06/17 01:15:40;;;;;;;14.15;9.60;;;;;;;;;;5047660;28;20393;-68
2021/06/17 01:18:09;;;;;;;11.25;9.05;;;;;;;;;;5048349;28;20057;-68
2021/06/17 01:20:41;;;;;;;14.55;9.82;;;;;;;;;;5041264;28;20038;-67
2021/06/17 01:23:39;;;;;;;15.35;10.60;;;;;;;;;;5043485;28;20077;-68
2021/06/17 01:26:14;;;;;;;12.68;10.40;;;;;;;;;;5037775;28;20037;-68
2021/06/17 01:28:41;;;;;;;16.00;11.38;;;;;;;;;;5050989;28;20152;-68
2021/06/17 01:31:07;;;;;;;16.95;11.07;;;;;;;;;;5045501;28;20036;-68
2021/06/17 01:33:35;;;;;;;13.95;11.35;;;;;;;;;;5046138;28;20041;-68
2021/06/17 01:36:03;;;;;;;15.75;11.27;;;;;;;;;;5040375;28;20045;-68
2021/06/17 01:38:29;;;;;;;15.60;11.23;;;;;;;;;;5039262;28;20090;-68
2021/06/17 01:40:56;;;;;;;18.20;11.57;;;;;;;;;;5039477;28;20038;-68
2021/06/17 01:43:24;;;;;;;15.57;11.57;;;;;;;;;;5038955;28;20378;-68
2021/06/17 01:45:50;;;;;;;20.40;13.10;;;;;;;;;;5040071;28;20037;-68
2021/06/17 01:48:17;;;;;;;16.60;11.07;;;;;;;;;;5045313;28;20412;-68
2021/06/17 01:50:45;;;;;;;17.88;11.68;;;;;;;;;;5046646;28;20503;-68
2021/06/17 01:53:12;;;;;;;16.05;11.38;;;;;;;;;;5044200;28;20053;-68
2021/06/17 01:55:39;;;;;;;16.63;11.73;;;;;;;;;;5045363;28;20048;-68
2021/06/17 01:58:06;;;;;;;12.65;11.43;;;;;;;;;;5040191;28;20040;-68
2021/06/17 02:00:33;;;;;;;16.80;11.93;;;;;;;;;;5045105;28;20544;-68
2021/06/17 02:03:01;;;;;;;15.23;10.88;;;;;;;;;;5047658;28;20164;-68
2021/06/17 02:05:28;;;;;;;14.27;12.65;;;;;;;;;;5044392;28;20143;-68
2021/06/17 02:07:54;;;;;;;18.92;13.35;;;;;;;;;;5042603;28;20194;-68
2021/06/17 02:10:21;;;;;;;16.48;12.98;;;;;;;;;;5032817;28;20045;-67
2021/06/17 02:12:48;;;;;;;15.93;13.30;;;;;;;;;;5035787;28;21975;-68
2021/06/17 02:15:14;;;;;;;14.50;11.60;;;;;;;;;;5040345;28;20481;-68
2021/06/17 02:17:43;;;;;;;19.00;12.95;;;;;;;;;;5043524;28;20102;-69
2021/06/17 02:20:10;;;;;;;16.85;12.82;;;;;;;;;;5043926;28;20041;-67
2021/06/17 02:22:41;;;;;;;16.98;12.45;;;;;;;;;;5039484;28;20052;-67
2021/06/17 02:25:07;;;;;;;16.15;13.57;;;;;;;;;;5041045;28;20131;-67
2021/06/17 02:27:34;;;;;;;16.85;14.48;;;;;;;;;;5046818;28;20037;-68
2021/06/17 02:30:03;;;;;;;14.57;13.07;;;;;;;;;;5037266;28;20072;-68
2021/06/17 02:32:31;;;;;;;18.55;14.68;;;;;;;;;;5039040;28;20140;-67
2021/06/17 02:34:58;;;;;;;19.40;14.35;;;;;;;;;;5061908;28;20037;-68
2021/06/17 02:37:24;;;;;;;16.10;13.25;;;;;;;;;;5045756;28;20071;-68
2021/06/17 02:39:51;;;;;;;20.63;15.43;;;;;;;;;;5040005;28;20068;-68
2021/06/17 02:42:19;;;;;;;17.90;16.00;;;;;;;;;;5043154;28;20064;-68
2021/06/17 02:44:47;;;;;;;15.90;12.50;;;;;;;;;;5046681;28;20059;-68
2021/06/17 02:47:14;;;;;;;17.15;13.38;;;;;;;;;;5058723;28;20064;-67
2021/06/17 02:49:41;;;;;;;17.20;14.98;;;;;;;;;;5053508;28;20143;-68
2021/06/17 02:52:07;;;;;;;16.33;14.63;;;;;;;;;;5061061;28;20048;-68
2021/06/17 02:54:34;;;;;;;20.77;16.20;;;;;;;;;;5065885;28;20488;-68
2021/06/17 02:57:06;;;;;;;24.35;15.75;;;;;;;;;;5044841;28;20053;-67
2021/06/17 02:59:41;;;;;;;17.13;15.25;;;;;;;;;;5048923;28;20041;-68
2021/06/17 03:02:13;;;;;;;18.17;15.43;;;;;;;;;;5047376;28;20053;-68
2021/06/17 03:04:44;;;;;;;16.27;13.52;;;;;;;;;;5060442;28;20390;-68
2021/06/17 03:07:18;;;;;;;17.73;13.20;;;;;;;;;;5044997;28;20494;-68
2021/06/17 03:09:46;;;;;;;20.02;15.13;;;;;;;;;;5041375;28;20064;-68
2021/06/17 03:12:14;;;;;;;19.50;15.48;;;;;;;;;;5033347;28;20408;-68
2021/06/17 03:14:41;;;;;;;18.65;14.40;;;;;;;;;;5065221;28;20098;-68
2021/06/17 03:17:08;;;;;;;21.27;16.05;;;;;;;;;;5044908;28;20060;-68
2021/06/17 03:19:36;;;;;;;18.35;15.40;;;;;;;;;;5045614;28;20058;-68
2021/06/17 03:22:04;;;;;;;25.02;16.45;;;;;;;;;;5042395;28;20054;-67
2021/06/17 03:24:33;;;;;;;23.30;17.38;;;;;;;;;;5042296;28;20059;-68
2021/06/17 03:27:00;;;;;;;21.85;18.00;;;;;;;;;;5043146;28;20562;-68
2021/06/17 03:29:29;;;;;;;28.40;18.38;;;;;;;;;;5049880;28;20036;-67
2021/06/17 03:31:56;;;;;;;20.65;17.80;;;;;;;;;;5038774;28;20062;-68
2021/06/17 03:34:23;;;;;;;23.08;18.98;;;;;;;;;;5042277;28;20048;-68
2021/06/17 03:36:50;;;;;;;25.50;19.17;;;;;;;;;;5045778;28;20055;-68
2021/06/17 03:39:17;;;;;;;24.75;18.90;;;;;;;;;;5050672;28;20045;-68
2021/06/17 03:41:44;;;;;;;25.95;19.67;;;;;;;;;;5049481;28;20099;-68
2021/06/17 03:44:11;;;;;;;26.60;19.23;;;;;;;;;;5046842;28;20056;-68
2021/06/17 03:46:38;;;;;;;23.05;20.17;;;;;;;;;;5044582;28;20041;-68
2021/06/17 03:49:07;;;;;;;22.95;20.25;;;;;;;;;;5043082;28;20072;-68
2021/06/17 03:51:33;;;;;;;25.30;20.25;;;;;;;;;;5074361;28;20055;-68
2021/06/17 03:54:00;;;;;;;24.90;20.02;;;;;;;;;;5047741;28;20037;-68
2021/06/17 03:56:26;;;;;;;27.63;21.38;;;;;;;;;;5045729;28;20060;-68
2021/06/17 03:58:53;;;;;;;24.05;21.17;;;;;;;;;;5039991;28;20120;-68
2021/06/17 04:01:19;;;;;;;22.25;19.23;;;;;;;;;;5040025;28;20111;-68
2021/06/17 04:03:46;;;;;;;22.83;20.35;;;;;;;;;;5072786;28;20053;-68
2021/06/17 04:06:16;;;;;;;24.05;20.95;;;;;;;;;;5062050;28;20078;-67
2021/06/17 04:08:45;;;;;;;28.05;21.30;;;;;;;;;;5046277;28;20041;-68
2021/06/17 04:11:12;;;;;;;26.73;21.45;;;;;;;;;;5043925;28;20460;-68
2021/06/17 04:13:40;;;;;;;27.70;21.98;;;;;;;;;;5043632;28;20037;-68
2021/06/17 04:16:08;;;;;;;27.08;21.15;;;;;;;;;;5039448;28;20578;-68
2021/06/17 04:18:35;;;;;;;26.10;21.90;;;;;;;;;;5043625;28;20057;-68
2021/06/17 04:21:02;;;;;;;28.10;22.83;;;;;;;;;;5044531;28;20053;-68
2021/06/17 04:23:29;;;;;;;24.80;21.42;;;;;;;;;;5046199;28;20119;-68
2021/06/17 04:25:57;;;;;;;25.60;20.95;;;;;;;;;;5046530;28;20135;-68
2021/06/17 04:28:26;;;;;;;29.67;22.13;;;;;;;;;;5079140;28;20120;-68
2021/06/17 04:30:54;;;;;;;23.92;21.25;;;;;;;;;;5073559;28;20055;-68
2021/06/17 04:33:21;;;;;;;26.10;21.73;;;;;;;;;;5042536;28;20048;-68
2021/06/17 04:35:48;;;;;;;27.55;21.80;;;;;;;;;;5043563;28;20440;-68
2021/06/17 04:38:17;;;;;;;25.10;22.52;;;;;;;;;;5045060;28;20548;-68
2021/06/17 04:40:45;;;;;;;23.80;21.27;;;;;;;;;;5043692;28;20044;-68
2021/06/17 04:43:11;;;;;;;28.20;23.10;;;;;;;;;;5048203;28;20045;-68
2021/06/17 04:45:38;;;;;;;25.90;22.58;;;;;;;;;;5049507;28;20033;-68
2021/06/17 04:48:08;;;;;;;24.60;22.00;;;;;;;;;;5045319;28;20131;-68
2021/06/17 04:50:35;;;;;;;27.02;23.15;;;;;;;;;;5046494;28;20511;-68
2021/06/17 04:53:04;;;;;;;27.17;22.73;;;;;;;;;;5044387;28;20037;-67
2021/06/17 04:55:30;;;;;;;27.35;22.20;;;;;;;;;;5054338;28;20415;-68
2021/06/17 04:57:57;;;;;;;26.83;22.48;;;;;;;;;;5060091;28;20055;-68
2021/06/17 05:00:23;;;;;;;28.13;22.83;;;;;;;;;;5065528;28;20040;-69
2021/06/17 05:02:49;;;;;;;24.98;22.33;;;;;;;;;;5068227;28;20051;-69
2021/06/17 05:05:16;;;;;;;25.15;22.55;;;;;;;;;;5079958;28;20061;-69
2021/06/17 05:12:54;;;;;;;29.58;23.40;;;;;;;;;;5067259;28;20475;-69
2021/06/17 05:15:21;;;;;;;27.50;24.65;;;;;;;;;;5061014;28;20520;-69
2021/06/17 05:17:47;;;;;;;29.98;23.52;;;;;;;;;;5064018;28;20048;-68
2021/06/17 05:20:14;;;;;;;31.58;24.33;;;;;;;;;;5065512;28;20045;-69
2021/06/17 05:22:41;;;;;;;29.88;24.52;;;;;;;;;;5066569;28;20036;-69
2021/06/17 05:25:08;;;;;;;28.20;24.73;;;;;;;;;;5061746;28;20044;-69
2021/06/17 05:27:34;;;;;;;27.48;23.20;;;;;;;;;;5067116;28;20033;-69
2021/06/17 05:30:00;;;;;;;27.58;23.92;;;;;;;;;;5064410;28;20064;-69
2021/06/17 05:32:28;;;;;;;26.98;23.88;;;;;;;;;;5056665;28;20044;-69
2021/06/17 05:34:54;;;;;;;29.23;24.70;;;;;;;;;;5064807;28;20133;-69
2021/06/17 05:37:20;;;;;;;29.83;23.90;;;;;;;;;;5075874;28;20057;-69
2021/06/17 05:39:46;;;;;;;28.33;24.15;;;;;;;;;;5058164;28;20048;-69
2021/06/17 05:42:13;;;;;;;28.13;24.10;;;;;;;;;;5067019;28;20054;-69
2021/06/17 05:44:39;;;;;;;28.55;23.88;;;;;;;;;;5062385;28;20044;-69
2021/06/17 05:47:05;;;;;;;27.30;23.92;;;;;;;;;;5062998;28;20539;-69
2021/06/17 05:49:32;;;;;;;30.80;23.63;;;;;;;;;;5062767;28;20049;-69
2021/06/17 05:51:58;;;;;;;37.05;24.70;;;;;;;;;;5066398;28;20052;-68
2021/06/17 05:54:25;;;;;;;26.80;23.08;;;;;;;;;;5065240;28;20106;-69
2021/06/17 05:56:51;;;;;;;27.73;23.55;;;;;;;;;;5066172;28;20068;-69
2021/06/17 05:59:19;;;;;;;28.75;25.63;;;;;;;;;;5066113;28;20071;-69
2021/06/17 06:01:46;;;;;;;28.15;23.75;;;;;;;;;;5058575;28;20099;-69
2021/06/17 06:04:12;;;;;;;26.73;23.95;;;;;;;;;;5084344;28;20065;-69
2021/06/17 06:06:38;;;;;;;26.17;23.58;;;;;;;;;;5052249;28;20095;-69
2021/06/17 06:09:04;;;;;;;26.60;22.70;;;;;;;;;;5055479;28;20048;-69
2021/06/17 06:11:30;;;;;;;29.92;23.55;;;;;;;;;;5067901;28;20115;-69
2021/06/17 06:13:57;;;;;;;25.60;22.42;;;;;;;;;;5063666;28;20090;-69
2021/06/17 06:16:23;;;;;;;28.63;22.02;;;;;;;;;;5056597;28;20484;-69
2021/06/17 06:18:50;;;;;;;28.85;21.05;;;;;;;;;;5063802;28;20041;-69
2021/06/17 06:21:16;;;;;;;28.73;20.20;;;;;;;;;;5063051;28;20045;-69
2021/06/17 06:23:43;;;;;;;31.10;21.92;;;;;;;;;;5055811;28;20037;-69
2021/06/17 06:26:09;;;;;;;27.85;21.20;;;;;;;;;;5026049;28;20049;-69
2021/06/17 06:28:35;;;;;;;28.30;21.27;;;;;;;;;;5001875;28;20052;-69
2021/06/17 06:31:01;;;;;;;22.08;19.70;;;;;;;;;;5010506;28;20046;-69
2021/06/17 06:33:28;;;;;;;24.92;19.40;;;;;;;;;;5011484;28;20073;-69
2021/06/17 06:35:54;;;;;;;25.42;18.67;;;;;;;;;;5009491;28;20505;-69
2021/06/17 06:38:21;;;;;;;22.80;18.58;;;;;;;;;;5006975;28;20061;-69
2021/06/17 06:40:47;;;;;;;25.30;18.17;;;;;;;;;;5003585;28;20041;-69
2021/06/17 06:43:15;;;;;;;21.73;18.30;;;;;;;;;;5000985;28;20111;-69
2021/06/17 06:45:42;;;;;;;20.70;16.73;;;;;;;;;;5006399;28;20486;-69
2021/06/17 06:48:08;;;;;;;20.63;18.58;;;;;;;;;;5001941;28;20144;-69
2021/06/17 06:50:35;;;;;;;22.00;17.55;;;;;;;;;;4998512;28;20056;-69
2021/06/17 06:53:02;;;;;;;25.90;17.92;;;;;;;;;;4996829;28;20069;-69
2021/06/17 06:55:28;;;;;;;24.73;16.38;;;;;;;;;;4994803;28;20117;-69
2021/06/17 06:57:55;;;;;;;19.42;17.40;;;;;;;;;;4995796;28;20449;-69
2021/06/17 07:00:21;;;;;;;20.45;16.95;;;;;;;;;;4999235;28;20038;-69
2021/06/17 07:02:48;;;;;;;19.20;15.50;;;;;;;;;;5008736;28;20581;-75
2021/06/17 07:05:19;;;;;;;27.25;17.02;;;;;;;;;;5011564;28;20072;-89
2021/06/17 07:07:45;;;;;;;21.63;17.48;;;;;;;;;;5006066;28;20082;-79
2021/06/17 07:10:12;;;;;;;23.83;15.98;;;;;;;;;;5008476;28;20436;-79
2021/06/17 07:12:39;;;;;;;25.17;16.52;;;;;;;;;;5000357;28;20396;-79
2021/06/17 07:15:05;;;;;;;22.63;15.82;;;;;;;;;;5008289;28;20091;-79
2021/06/17 07:17:32;;;;;;;20.92;17.27;;;;;;;;;;5004788;28;20077;-79
2021/06/17 07:19:58;;;;;;;19.70;17.30;;;;;;;;;;4991094;28;20114;-79
2021/06/17 07:22:25;;;;;;;19.58;17.23;;;;;;;;;;4997118;28;20374;-79
2021/06/17 07:24:53;;;;;;;19.23;17.20;;;;;;;;;;4994570;28;20168;-79
2021/06/17 07:27:20;;;;;;;17.95;14.80;;;;;;;;;;4995017;28;20062;-79
2021/06/17 07:29:46;;;;;;;22.23;16.50;;;;;;;;;;4996498;28;20437;-79
2021/06/17 07:32:12;;;;;;;20.95;15.77;;;;;;;;;;5006060;28;20062;-79
2021/06/17 07:34:42;;;;;;;24.38;15.80;;;;;;;;;;5006333;28;20064;-78
2021/06/17 07:37:08;;;;;;;20.45;15.25;;;;;;;;;;4996259;28;20073;-79
2021/06/17 07:39:34;;;;;;;22.05;16.10;;;;;;;;;;5000020;28;20089;-79
2021/06/17 07:42:01;;;;;;;19.52;15.13;;;;;;;;;;4991681;28;20053;-79
2021/06/17 07:44:27;;;;;;;19.35;16.70;;;;;;;;;;5000969;28;20137;-79
2021/06/17 07:46:54;;;;;;;20.75;16.17;;;;;;;;;;5001366;28;20046;-79
2021/06/17 07:49:20;;;;;;;22.85;16.17;;;;;;;;;;5006591;28;20046;-79
2021/06/17 07:51:47;;;;;;;22.58;15.40;;;;;;;;;;5004728;28;20037;-79
2021/06/17 07:54:18;;;;;;;21.83;14.45;;;;;;;;;;5004457;28;20473;-79
2021/06/17 07:56:45;;;;;;;18.35;14.23;;;;;;;;;;5010449;28;20051;-79
2021/06/17 07:59:14;;;;;;;20.83;15.75;;;;;;;;;;5010840;28;20056;-79
2021/06/17 08:01:40;;;;;;;17.85;14.68;;;;;;;;;;5010035;28;20046;-79
2021/06/17 08:04:07;;;;;;;15.30;13.48;;;;;;;;;;5000652;28;20068;-79
2021/06/17 08:06:34;;;;;;;18.50;14.07;;;;;;;;;;5004264;28;20077;-79
2021/06/17 08:09:00;;;;;;;16.63;13.93;;;;;;;;;;5005657;28;20136;-79
2021/06/17 08:11:27;;;;;;;16.55;14.30;;;;;;;;;;5025304;28;20171;-79
2021/06/17 08:13:53;;;;;;;17.83;14.25;;;;;;;;;;5019063;28;20140;-79
2021/06/17 08:16:20;;;;;;;20.30;14.00;;;;;;;;;;5016051;28;20500;-79
2021/06/17 08:18:46;;;;;;;18.45;14.18;;;;;;;;;;5014872;28;20050;-79
2021/06/17 08:21:13;;;;;;;17.77;14.50;;;;;;;;;;5017280;28;20038;-79
2021/06/17 08:23:39;;;;;;;19.20;14.43;;;;;;;;;;5009048;28;20140;-79
2021/06/17 08:26:07;;;;;;;19.33;13.77;;;;;;;;;;5007060;28;20513;-79
2021/06/17 08:28:34;;;;;;;14.85;12.80;;;;;;;;;;5010099;28;20149;-79
2021/06/17 08:31:00;;;;;;;14.80;10.73;;;;;;;;;;5013708;28;20125;-79
2021/06/17 08:33:26;;;;;;;16.48;11.73;;;;;;;;;;5012051;28;20050;-79
2021/06/17 08:35:53;;;;;;;17.30;12.00;;;;;;;;;;5014544;28;20148;-79
2021/06/17 08:38:20;;;;;;;20.33;12.18;;;;;;;;;;5011151;28;20513;-79
2021/06/17 08:40:47;;;;;;;14.68;11.25;;;;;;;;;;5008321;28;20050;-79
2021/06/17 08:43:13;;;;;;;12.75;10.38;;;;;;;;;;5003664;28;20073;-79
2021/06/17 08:45:39;;;;;;;18.25;11.02;;;;;;;;;;5005392;28;20082;-79
2021/06/17 08:48:06;;;;;;;12.43;9.57;;;;;;;;;;5009161;28;20086;-79
2021/06/17 08:50:32;;;;;;;11.85;9.80;;;;;;;;;;5010985;28;20121;-79
2021/06/17 08:52:59;;;;;;;14.35;10.10;;;;;;;;;;5011315;28;20124;-79
2021/06/17 08:55:28;;;;;;;12.80;9.20;;;;;;;;;;5006088;28;20081;-79
2021/06/17 08:57:55;;;;;;;14.32;8.80;;;;;;;;;;5000864;28;20193;-79
2021/06/17 09:00:21;;;;;;;13.98;8.65;;;;;;;;;;4999823;28;20100;-79
2021/06/17 09:02:56;;;;;;;15.48;8.80;;;;;;;;;;5001552;28;20117;-79
2021/06/17 09:05:23;;;;;;;15.30;9.10;;;;;;;;;;5002650;28;20469;-79
2021/06/17 09:07:49;;;;;;;14.57;9.23;;;;;;;;;;5010241;28;20046;-79
2021/06/17 09:10:16;;;;;;;12.30;7.85;;;;;;;;;;5017057;28;20121;-79
2021/06/17 09:12:43;;;;;;;15.30;6.90;;;;;;;;;;5004438;28;20070;-79
2021/06/17 09:15:09;;;;;;;11.48;7.47;;;;;;;;;;5007067;28;20057;-79
2021/06/17 09:17:36;;;;;;;12.07;6.88;;;;;;;;;;5000777;28;20437;-79
2021/06/17 09:20:03;;;;;;;10.48;6.20;;;;;;;;;;5001672;28;20506;-79
2021/06/17 09:22:29;;;;;;;8.27;6.90;;;;;;;;;;5011218;28;20136;-79
2021/06/17 09:24:57;;;;;;;10.52;6.68;;;;;;;;;;5000312;28;20437;-78
2021/06/17 09:27:26;;;;;;;12.95;8.07;;;;;;;;;;5003976;28;20053;-79
2021/06/17 09:29:54;;;;;;;15.18;7.75;;;;;;;;;;5002831;28;20049;-79
2021/06/17 09:32:22;;;;;;;17.58;7.45;;;;;;;;;;4997337;28;20038;-79
2021/06/17 09:34:49;;;;;;;13.00;6.95;;;;;;;;;;4999227;28;20101;-79
2021/06/17 09:37:31;;;;;;;10.90;7.38;;;;;;;;;;4996942;28;20108;-92
2021/06/17 09:39:58;;;;;;;14.02;7.82;;;;;;;;;;4995359;28;20108;-79
2021/06/17 09:42:30;;;;;;;11.25;6.82;;;;;;;;;;4997814;28;20042;-79
2021/06/17 09:44:58;;;;;;;11.35;6.60;;;;;;;;;;5002630;28;20086;-79
2021/06/17 09:47:25;;;;;;;17.55;7.63;;;;;;;;;;5004459;28;20124;-79
2021/06/17 09:49:54;;;;;;;10.00;6.72;;;;;;;;;;4999624;28;20116;-79
2021/06/17 09:52:20;;;;;;;8.98;6.28;;;;;;;;;;5008099;28;20057;-79
2021/06/17 09:54:49;;;;;;;10.13;7.28;;;;;;;;;;5005276;28;20137;-79
2021/06/17 09:57:19;;;;;;;9.77;7.05;;;;;;;;;;4996359;28;20057;-79
2021/06/17 09:59:47;;;;;;;9.57;7.15;;;;;;;;;;4996914;28;20130;-79
2021/06/17 10:02:18;;;;;;;9.93;6.95;;;;;;;;;;5006827;28;20410;-79
2021/06/17 10:04:45;;;;;;;14.82;7.63;;;;;;;;;;5001009;28;20126;-80
2021/06/17 10:07:11;;;;;;;15.65;8.90;;;;;;;;;;5008267;28;20077;-78
2021/06/17 10:09:38;;;;;;;12.77;7.82;;;;;;;;;;4999459;28;20525;-78
2021/06/17 10:12:05;;;;;;;11.70;7.65;;;;;;;;;;5008437;28;20054;-77
2021/06/17 10:14:31;;;;;;;11.23;7.20;;;;;;;;;;4995223;28;20046;-77
2021/06/17 10:16:59;;;;;;;10.60;8.23;;;;;;;;;;4997772;28;20053;-77
2021/06/17 10:19:26;;;;;;;15.30;7.85;;;;;;;;;;5006546;28;20199;-78
2021/06/17 10:21:53;;;;;;;12.45;7.68;;;;;;;;;;4997703;28;20075;-78
2021/06/17 10:24:21;;;;;;;14.93;7.50;;;;;;;;;;4995552;28;20117;-77
2021/06/17 10:26:49;;;;;;;13.48;7.30;;;;;;;;;;5004759;28;20064;-77
2021/06/17 10:29:35;;;;;;;10.98;7.55;;;;;;;;;;5004212;28;20093;-77
2021/06/17 10:32:02;;;;;;;11.63;7.75;;;;;;;;;;5013874;28;20050;-77
2021/06/17 10:34:29;;;;;;;11.38;7.45;;;;;;;;;;5004471;28;20056;-77
2021/06/17 10:37:05;;;;;;;12.77;8.85;;;;;;;;;;4999336;28;20472;-77
2021/06/17 10:39:37;;;;;;;14.80;8.93;;;;;;;;;;5006821;28;20042;-77
2021/06/17 10:42:09;;;;;;;10.88;8.77;;;;;;;;;;4999460;28;20061;-77
2021/06/17 10:44:44;;;;;;;17.52;9.02;;;;;;;;;;4995342;28;20046;-77
2021/06/17 10:47:30;;;;;;;12.07;9.55;;;;;;;;;;5006555;28;20126;-78
2021/06/17 10:49:57;;;;;;;15.10;9.05;;;;;;;;;;4994414;28;20038;-78
2021/06/17 10:52:25;;;;;;;14.45;8.73;;;;;;;;;;5002110;28;20038;-77
2021/06/17 10:54:57;;;;;;;18.77;10.27;;;;;;;;;;4998556;28;20066;-77
2021/06/17 10:57:42;;;;;;;11.60;9.63;;;;;;;;;;4996283;28;20038;-77
2021/06/17 11:00:29;;;;;;;17.27;9.05;;;;;;;;;;4995815;28;20046;-78
2021/06/17 11:02:57;;;;;;;13.93;8.57;;;;;;;;;;4995638;28;20398;-77
2021/06/17 11:05:49;;;;;;;15.27;8.80;;;;;;;;;;4999894;28;20045;-77
2021/06/17 11:08:21;;;;;;;15.00;8.33;;;;;;;;;;5002239;28;20041;-77
2021/06/17 11:10:49;;;;;;;13.48;8.93;;;;;;;;;;5009963;28;20320;-78
2021/06/17 11:13:29;;;;;;;12.82;8.65;;;;;;;;;;4994861;28;20042;-77
2021/06/17 11:15:56;;;;;;;12.88;8.13;;;;;;;;;;4999777;28;20498;-77
2021/06/17 11:18:56;;;;;;;13.75;7.72;;;;;;;;;;5012493;28;20084;-78
2021/06/17 11:21:23;;;;;;;13.35;8.48;;;;;;;;;;4989528;28;20486;-77
2021/06/17 11:23:51;;;;;;;11.65;8.27;;;;;;;;;;5005653;28;20065;-77
2021/06/17 11:26:37;;;;;;;11.38;7.53;;;;;;;;;;5000532;28;20065;-77
2021/06/17 11:29:05;;;;;;;11.23;7.63;;;;;;;;;;4993400;28;20532;-78
2021/06/17 11:31:42;;;;;;;10.18;6.30;;;;;;;;;;4997983;28;20449;-77
2021/06/17 11:34:09;;;;;;;15.05;6.93;;;;;;;;;;5000573;28;20096;-77
2021/06/17 11:36:35;;;;;;;16.25;6.78;;;;;;;;;;4999364;28;20042;-77
2021/06/17 11:39:03;;;;;;;10.23;5.25;;;;;;;;;;5000948;28;20552;-77
2021/06/17 11:41:30;;;;;;;6.82;4.75;;;;;;;;;;5000320;28;20632;-78
2021/06/17 11:44:00;;;;;;;8.73;4.63;;;;;;;;;;4993353;28;20038;-77
2021/06/17 11:46:28;;;;;;;10.75;4.82;;;;;;;;;;4993888;28;20117;-76
2021/06/17 11:48:57;;;;;;;7.70;4.80;;;;;;;;;;4995204;28;20065;-86
2021/06/17 11:51:24;;;;;;;10.25;5.38;;;;;;;;;;5003476;28;20070;-77
2021/06/17 11:53:51;;;;;;;13.88;6.00;;;;;;;;;;4998178;28;20073;-77
2021/06/17 11:56:28;;;;;;;11.25;6.00;;;;;;;;;;5001859;28;20038;-77
2021/06/17 11:58:54;;;;;;;11.10;5.70;;;;;;;;;;4996826;28;20120;-77
2021/06/17 12:01:21;;;;;;;17.05;6.25;;;;;;;;;;4999323;28;20048;-77
2021/06/17 12:03:56;;;;;;;8.35;6.35;;;;;;;;;;4995026;28;20145;-77
2021/06/17 12:06:23;;;;;;;8.73;5.72;;;;;;;;;;5000349;28;20041;-77
2021/06/17 12:09:09;;;;;;;13.90;7.00;;;;;;;;;;4997849;28;20073;-76
2021/06/17 12:11:36;;;;;;;15.25;6.88;;;;;;;;;;4997993;28;20030;-76
2021/06/17 12:14:04;;;;;;;11.38;6.32;;;;;;;;;;4996249;28;20050;-76
2021/06/17 12:16:31;;;;;;;17.65;6.60;;;;;;;;;;4996079;28;20046;-76
2021/06/17 12:18:57;;;;;;;13.63;6.80;;;;;;;;;;5004993;28;20212;-76
2021/06/17 12:21:28;;;;;;;13.40;6.40;;;;;;;;;;5005188;28;20117;-77
2021/06/17 12:23:55;;;;;;;10.98;6.03;;;;;;;;;;5011932;28;20050;-76
2021/06/17 12:26:28;;;;;;;10.55;5.50;;;;;;;;;;4996166;28;20072;-87
2021/06/17 12:28:55;;;;;;;15.30;5.00;;;;;;;;;;4995148;28;20457;-76
2021/06/17 12:31:27;;;;;;;8.40;4.88;;;;;;;;;;4996719;28;20053;-77
2021/06/17 12:34:04;;;;;;;10.52;5.40;;;;;;;;;;4999413;28;20041;-77
2021/06/17 12:36:30;;;;;;;11.23;5.00;;;;;;;;;;4991940;28;20430;-77
2021/06/17 12:39:07;;;;;;;12.18;5.25;;;;;;;;;;5000870;28;20069;-77
2021/06/17 12:41:40;;;;;;;11.98;4.78;;;;;;;;;;4998923;28;20034;-76
2021/06/17 12:44:06;;;;;;;6.53;4.93;;;;;;;;;;4995726;28;20050;-77
2021/06/17 12:46:40;;;;;;;16.35;5.90;;;;;;;;;;4996327;28;20094;-77
2021/06/17 12:52:04;;;;;;;10.10;4.80;;;;;;;;;;4999173;28;20042;-77
2021/06/17 12:54:32;;;;;;;10.63;4.55;;;;;;;;;;5002901;28;20052;-77
2021/06/17 12:57:01;;;;;;;8.15;4.43;;;;;;;;;;4999005;28;20457;-77
2021/06/17 12:59:32;;;;;;;15.05;4.72;;;;;;;;;;5022238;28;20140;-77
2021/06/17 13:01:58;;;;;;;8.20;4.43;;;;;;;;;;4995702;28;20057;-76
2021/06/17 13:04:24;;;;;;;10.10;5.15;;;;;;;;;;5005394;28;20126;-77
2021/06/17 13:06:50;;;;;;;10.02;5.05;;;;;;;;;;5002515;28;20096;-77
2021/06/17 13:09:21;;;;;;;13.20;5.93;;;;;;;;;;5000583;28;20038;-77
2021/06/17 13:12:03;;;;;;;11.10;6.30;;;;;;;;;;5001728;28;20124;-77
2021/06/17 13:14:29;;;;;;;10.63;5.28;;;;;;;;;;4993240;28;20038;-76
2021/06/17 13:17:04;;;;;;;8.98;5.40;;;;;;;;;;5003320;28;20085;-77
2021/06/17 13:19:30;;;;;;;11.43;4.00;;;;;;;;;;4997935;28;20050;-77
2021/06/17 13:22:06;;;;;;;11.05;3.97;;;;;;;;;;5019396;28;20038;-76
2021/06/17 13:24:41;;;;;;;8.85;4.47;;;;;;;;;;4995937;28;20189;-77
2021/06/17 13:27:11;;;;;;;8.90;4.88;;;;;;;;;;5005701;28;20042;-77
2021/06/17 13:29:54;;;;;;;9.30;3.90;;;;;;;;;;4994525;28;20130;-77
2021/06/17 13:32:21;;;;;;;13.10;4.18;;;;;;;;;;5000933;28;20064;-76
2021/06/17 13:34:47;;;;;;;9.73;3.80;;;;;;;;;;5017613;28;20131;-77
2021/06/17 13:37:13;;;;;;;8.52;3.60;;;;;;;;;;5000361;28;20176;-76
2021/06/17 13:39:40;;;;;;;8.88;3.40;;;;;;;;;;4993672;28;20038;-77
2021/06/17 13:42:06;;;;;;;10.25;3.58;;;;;;;;;;5005246;28;20095;-77
2021/06/17 13:44:34;;;;;;;8.27;4.25;;;;;;;;;;5001662;28;20056;-77
2021/06/17 13:47:01;;;;;;;10.32;4.05;;;;;;;;;;5006399;28;20033;-77
2021/06/17 13:49:27;;;;;;;9.48;4.10;;;;;;;;;;5002160;28;20108;-77
2021/06/17 13:51:56;;;;;;;11.95;4.68;;;;;;;;;;5002732;28;20049;-77
2021/06/17 13:54:22;;;;;;;18.05;4.68;;;;;;;;;;5000042;28;20064;-77
2021/06/17 13:56:49;;;;;;;7.05;3.90;;;;;;;;;;4989090;28;20046;-77
2021/06/17 13:59:16;;;;;;;11.05;4.05;;;;;;;;;;4995403;28;20124;-77
2021/06/17 14:01:42;;;;;;;9.30;4.22;;;;;;;;;;5005044;28;20044;-77
2021/06/17 14:04:14;;;;;;;8.85;4.47;;;;;;;;;;5005013;28;20052;-76
2021/06/17 14:06:40;;;;;;;10.02;3.55;;;;;;;;;;5004593;28;20042;-77
2021/06/17 14:09:07;;;;;;;9.27;4.20;;;;;;;;;;4997159;28;20050;-77
2021/06/17 14:11:33;;;;;;;9.55;3.90;;;;;;;;;;5000967;28;21804;-77
2021/06/17 14:13:59;;;;;;;6.18;3.40;;;;;;;;;;5001532;28;20096;-77
2021/06/17 14:16:26;;;;;;;11.63;3.60;;;;;;;;;;4999752;28;20092;-77
2021/06/17 14:18:52;;;;;;;6.82;2.97;;;;;;;;;;5007561;28;20078;-77
2021/06/17 14:21:19;;;;;;;7.45;3.45;;;;;;;;;;5001176;28;20059;-77
2021/06/17 14:23:45;;;;;;;8.48;3.45;;;;;;;;;;5005714;28;20064;-77
2021/06/17 14:26:11;;;;;;;11.32;4.18;;;;;;;;;;5000651;28;20038;-77
2021/06/17 14:28:37;;;;;;;8.35;3.10;;;;;;;;;;5002733;28;20042;-84
2021/06/17 14:31:04;;;;;;;11.88;3.80;;;;;;;;;;5005835;28;20567;-77
2021/06/17 14:33:30;;;;;;;8.95;3.60;;;;;;;;;;5003960;28;20050;-77
2021/06/17 14:35:57;;;;;;;8.48;3.13;;;;;;;;;;5001817;28;20038;-77
2021/06/17 14:38:23;;;;;;;15.05;4.05;;;;;;;;;;5002702;28;20062;-76